Darregueira, Argentina
Current Conditions -  °F | °C
As of 3:00 AM on Saturday 29 Nov 2014 (Local Time) from SAZN Reporting Station
Scattered Clouds Scattered Clouds  
Wind Chill: 61°   Ceiling: Unl
Heat Index: 61°   Visibility: 6mi
Dew Point: 39°   Wind: 6mph
Humidity: 45%   Direction: 230°SW
Pressure: 29.8"   Gusts: NA
Location:  37.7°S, 63.17°W
Report Text: SAZN 290600Z 23005KT 9999 SCT050 SCT20016/04 Q1009
Loading
Personal Weather Stations






























Interactive Weather Map New forecast layout! Learn more

10-Day Weather Forecast

Advertisements
Track Severe Weather on mobile